Flight Track Log - Related Links

Times and Time Zones

All times are in EST time to prevent confusion due to time zone crossing. See the SWA363 flight status page for this flight to view local times or setup timezone preferences in your user account.

Time Position Orientation Groundspeed Altitude Reporting Facility
EST Latitude Longitude Course Direction KTS MPH feet Rate Location/Type
11:15PM 39.2000 -76.8333 288° West 231 266 5,800  Level Potomac TRACON
11:17PM 39.2119 -76.9658 277° West 255 293 12,500 2,852 Climbing Washington Center
11:18PM 39.2131 -77.0594 271° West 256 295 13,500 1,736 Climbing Washington Center
11:19PM 39.1825 -77.1661 250° West 294 338 16,000 2,542 Climbing Washington Center
11:20PM 39.1199 -77.2161 211° Southwest  Level FlightAware Approximate
11:20PM 39.1475 -77.2778 248° West 312 359 18,500  Level Washington Center
11:21PM 39.1125 -77.3892 248° West 334 384 21,300 2,150 Climbing Washington Center
11:22PM 39.0775 -77.5033 248° West 339 390 22,800 1,950 Climbing Washington Center
11:23PM 39.0378 -77.6306 248° West 351 404 25,200 2,450 Climbing Washington Center
11:24PM 39.0069 -77.7286 248° West 343 395 27,700 2,182 Climbing Washington Center
11:25PM 38.9761 -77.8264 248° West 331 381 29,600 2,100 Climbing Washington Center
11:26PM 38.9339 -77.9586 248° West 331 381 31,900 1,220 Climbing Washington Center
11:27PM 38.8983 -78.0694 248° West 331 381 32,000 1,500 Climbing Washington Center
11:28PM 38.8628 -78.1778 247° West 331 381 34,900 2,017 Climbing Washington Center
11:29PM 38.8519 -78.2811 262° West 316 364 36,000 545 Climbing Washington Center
11:30PM 38.8517 -78.3906 270° West 316 364 36,000  Level Washington Center
11:31PM 38.8511 -78.5025 270° West 310 357 36,000  Level Washington Center
11:32PM 38.8483 -78.6117 268° West 310 357 36,000  Level Washington Center
11:33PM 38.8475 -78.7236 269° West 310 357 36,000  Level Washington Center
11:34PM 38.8469 -78.8303 270° West 310 357 36,000  Level Washington Center
11:35PM 38.8439 -78.9419 268° West 310 357 36,000  Level Washington Center
11:36PM 38.8408 -79.0511 268° West 310 357 36,000  Level Washington Center
11:37PM 38.8397 -79.1603 269° West 310 357 36,000  Level Washington Center
11:38PM 38.8411 -79.2483 271° West 310 357 36,000  Level Washington Center
11:39PM 38.8394 -79.3683 269° West 310 357 36,000  Level Washington Center
11:40PM 38.8358 -79.4800 268° West 310 357 36,000  Level Washington Center
11:41PM 38.8342 -79.5944 269° West 310 357 36,000  Level Washington Center
11:42PM 38.8325 -79.7064 269° West 316 364 36,000  Level Washington Center
11:43PM 38.8308 -79.8183 269° West 321 369 36,000  Level Washington Center
11:44PM 38.8233 -79.9469 266° West 311 358 36,000  Level Indianapolis Center
11:45PM 38.8208 -80.0572 268° West 311 358 36,000  Level Indianapolis Center
11:46PM 38.8172 -80.1681 268° West 311 358 36,000  Level Indianapolis Center
11:47PM 38.8147 -80.2786 268° West 311 358 36,000  Level Indianapolis Center
11:48PM 38.8106 -80.3886 267° West 311 358 36,000  Level Indianapolis Center
11:49PM 38.8081 -80.4978 268° West 310 357 36,000  Level Indianapolis Center
11:50PM 38.8050 -80.6069 268° West 310 357 36,000  Level Indianapolis Center
11:51PM 38.8011 -80.7175 267° West 309 356 36,000  Level Indianapolis Center
11:52PM 38.7975 -80.8258 268° West 309 356 36,000  Level Indianapolis Center
11:53PM 38.7944 -80.9350 268° West 309 356 36,000  Level Indianapolis Center
11:54PM 38.7908 -81.0439 268° West 308 354 36,000  Level Indianapolis Center
11:55PM 38.7878 -81.1522 268° West 308 354 36,000  Level Indianapolis Center
11:56PM 38.7842 -81.2617 268° West 307 353 36,000  Level Indianapolis Center
11:57PM 38.7961 -81.3672 278° West 306 352 36,000  Level Indianapolis Center
11:58PM 38.8108 -81.4922 279° West 303 349 36,000  Level Indianapolis Center
11:59PM 38.8236 -81.5953 279° West 303 349 36,000  Level Indianapolis Center
12:00AM 38.8364 -81.6997 279° West 302 348 36,000  Level Indianapolis Center
12:01AM 38.8489 -81.8053 279° West 302 348 36,000  Level Indianapolis Center
12:02AM 38.8622 -81.9114 279° West 302 348 36,000  Level Indianapolis Center
12:03AM 38.8739 -82.0161 278° West 301 346 36,000  Level Indianapolis Center
12:04AM 38.8861 -82.1219 278° West 301 346 36,000  Level Indianapolis Center
12:05AM 38.8983 -82.2272 279° West 301 346 36,000  Level Indianapolis Center
12:06AM 38.9100 -82.3322 278° West 301 346 36,000  Level Indianapolis Center
12:07AM 38.9231 -82.4461 278° West 300 345 36,000  Level Indianapolis Center
12:08AM 38.9336 -82.5431 278° West 300 345 36,000  Level Indianapolis Center
12:09AM 38.9444 -82.6492 278° West 300 345 36,000  Level Indianapolis Center
12:10AM 38.9569 -82.7544 279° West 300 345 36,000  Level Indianapolis Center
12:11AM 38.9681 -82.8617 278° West 300 345 36,000  Level Indianapolis Center
12:12AM 38.9794 -82.9664 278° West 300 345 36,000  Level Indianapolis Center
12:13AM 38.9931 -83.0939 278° West 299 344 36,000  Level Indianapolis Center
12:14AM 39.0044 -83.1981 278° West 299 344 36,000  Level Indianapolis Center
12:15AM 39.0153 -83.3017 278° West 298 343 36,000  Level Indianapolis Center
12:16AM 39.0258 -83.4067 277° West 298 343 36,000  Level Indianapolis Center
12:17AM 39.0375 -83.5119 278° West 298 343 36,000  Level Indianapolis Center
12:18AM 39.0478 -83.6158 277° West 297 342 36,000  Level Indianapolis Center
12:19AM 39.0581 -83.7208 277° West 297 342 36,000  Level Indianapolis Center
12:20AM 39.0689 -83.8258 278° West 297 342 36,000  Level Indianapolis Center
12:21AM 39.0778 -83.9292 276° West 296 341 36,000  Level Indianapolis Center
12:22AM 39.0886 -84.0325 278° West 294 338 36,000  Level Indianapolis Center
12:23AM 39.0989 -84.1369 277° West 294 338 36,000  Level Indianapolis Center
12:24AM 39.1086 -84.2403 277° West 294 338 36,000  Level Indianapolis Center
12:25AM 39.1186 -84.3461 277° West 294 338 36,000  Level Indianapolis Center
12:26AM 39.1283 -84.4514 277° West 294 338 36,000  Level Indianapolis Center
12:27AM 39.1389 -84.5556 277° West 294 338 36,000  Level Indianapolis Center
12:29AM 39.1486 -84.6617 277° West 296 341 36,000  Level Indianapolis Center
12:30AM 39.1583 -84.7678 277° West 296 341 36,000  Level Indianapolis Center
12:31AM 39.1678 -84.8714 277° West 296 341 36,000  Level Indianapolis Center
12:32AM 39.1781 -84.9831 277° West 296 341 36,000  Level Indianapolis Center
12:33AM 39.1886 -85.0964 277° West 295 339 36,000  Level Indianapolis Center
12:34AM 39.1969 -85.1917 276° West 296 341 36,000  Level Indianapolis Center
12:35AM 39.2058 -85.2983 276° West 296 341 36,000  Level Indianapolis Center
12:36AM 39.2156 -85.4025 277° West 296 341 36,000  Level Indianapolis Center
12:37AM 39.2233 -85.5072 276° West 296 341 36,000  Level Indianapolis Center
12:38AM 39.2331 -85.6142 277° West 296 341 36,000  Level Indianapolis Center
12:39AM 39.2417 -85.7197 276° West 296 341 36,000  Level Indianapolis Center
12:40AM 39.2525 -85.8489 276° West 297 342 36,000  Level Indianapolis Center
12:41AM 39.2608 -85.9539 276° West 297 342 36,000  Level Indianapolis Center
12:42AM 39.2700 -86.0614 276° West 298 343 36,000  Level Indianapolis Center
12:43AM 39.2781 -86.1669 276° West 298 343 36,000  Level Indianapolis Center
12:44AM 39.2864 -86.2744 276° West 298 343 36,000  Level Indianapolis Center
12:45AM 39.2947 -86.3819 276° West 298 343 36,000  Level Indianapolis Center
12:46AM 39.3028 -86.4897 276° West 298 343 36,000  Level Indianapolis Center
12:47AM 39.3117 -86.5967 276° West 298 343 36,000  Level Indianapolis Center
12:48AM 39.3192 -86.7044 275° West 299 344 36,000  Level Indianapolis Center
12:49AM 39.3278 -86.8122 276° West 299 344 36,000  Level Indianapolis Center
12:50AM 39.3350 -86.9186 275° West 299 344 36,000  Level Indianapolis Center
12:51AM 39.3433 -87.0258 276° West 299 344 36,000  Level Indianapolis Center
12:52AM 39.3494 -87.1342 274° West 299 344 36,000  Level Indianapolis Center
12:53AM 39.3578 -87.2428 276° West 300 345 36,000  Level Indianapolis Center
12:54AM 39.3653 -87.3503 275° West 300 345 36,000  Level Indianapolis Center
12:55AM 39.3728 -87.4575 275° West 300 345 36,000  Level Indianapolis Center
12:56AM 39.3797 -87.5639 275° West 301 346 36,000  Level Indianapolis Center
12:57AM 39.3867 -87.6700 275° West 300 345 36,000  Level Indianapolis Center
12:58AM 39.3939 -87.7769 275° West 300 345 36,000  Level Indianapolis Center
12:59AM 39.4008 -87.8839 275° West 300 345 36,000  Level Indianapolis Center
01:00AM 39.4075 -87.9906 275° West 300 345 36,000  Level Indianapolis Center
01:01AM 39.4147 -88.0978 275° West 300 345 36,000  Level Indianapolis Center
01:01AM 39.4200 -88.1761 275° West 301 346 36,000  Level Kansas City Center
01:02AM 39.4261 -88.2844 274° West 300 345 36,000  Level Kansas City Center
01:03AM 39.4322 -88.3925 274° West 300 345 36,000  Level Kansas City Center
01:04AM 39.4389 -88.5000 275° West 300 345 36,000  Level Kansas City Center
01:06AM 39.4447 -88.6003 274° West 300 345 36,000  Level Kansas City Center
01:06AM 39.4500 -88.7092 274° West 302 348 36,000  Level Kansas City Center
01:08AM 39.4567 -88.8186 275° West 302 348 36,000  Level Kansas City Center
01:09AM 39.4633 -88.9275 275° West 303 349 36,000  Level Kansas City Center
01:10AM 39.4686 -89.0367 274° West 303 349 36,000  Level Kansas City Center
01:11AM 39.4747 -89.1442 274° West 303 349 36,000  Level Kansas City Center
01:12AM 39.4800 -89.2539 274° West 303 349 36,000  Level Kansas City Center
01:13AM 39.4861 -89.3761 274° West 303 349 36,000  Level Kansas City Center
01:14AM 39.4925 -89.4856 274° West 303 349 36,000  Level Kansas City Center
01:15AM 39.4975 -89.5950 273° West 303 349 36,000  Level Kansas City Center
01:16AM 39.5028 -89.7042 274° West 304 350 36,000  Level Kansas City Center
01:17AM 39.5083 -89.8158 274° West 308 354 36,000  Level Kansas City Center
01:18AM 39.5144 -89.9253 274° West 308 354 36,000  Level Kansas City Center
01:19AM 39.5189 -90.0381 273° West 310 357 36,000  Level Kansas City Center
01:20AM 39.5244 -90.1486 274° West 310 357 36,000  Level Kansas City Center
01:21AM 39.5217 -90.2594 268° West 310 357 36,000  Level Kansas City Center
01:22AM 39.5175 -90.3694 267° West 310 357 36,000  Level Kansas City Center
01:23AM 39.5142 -90.4797 268° West 310 357 36,000  Level Kansas City Center
01:24AM 39.5103 -90.5883 267° West 309 356 36,000  Level Kansas City Center
01:25AM 39.5061 -90.6986 267° West 309 356 36,000  Level Kansas City Center
01:26AM 39.5025 -90.8089 268° West 309 356 36,000  Level Kansas City Center
01:27AM 39.4986 -90.9178 267° West 308 354 36,000  Level Kansas City Center
01:28AM 39.4939 -91.0494 267° West 307 353 36,000  Level Kansas City Center
01:29AM 39.4892 -91.1608 267° West 308 354 36,000  Level Kansas City Center
01:30AM 39.4844 -91.2711 267° West 308 354 36,000  Level Kansas City Center
01:31AM 39.4806 -91.3822 267° West 308 354 36,000  Level Kansas City Center
01:32AM 39.4753 -91.4936 267° West 309 356 36,000  Level Kansas City Center
01:33AM 39.4706 -91.6050 267° West 309 356 36,000  Level Kansas City Center
01:34AM 39.4667 -91.7131 267° West 310 357 36,000  Level Kansas City Center
01:35AM 39.4611 -91.8242 266° West 310 357 36,000  Level Kansas City Center
01:36AM 39.4561 -91.9353 267° West 310 357 36,000  Level Kansas City Center
01:37AM 39.4522 -92.0453 267° West 310 357 36,000  Level Kansas City Center
01:38AM 39.4467 -92.1578 266° West 310 357 36,000  Level Kansas City Center
01:39AM 39.4419 -92.2697 267° West 311 358 36,000  Level Kansas City Center
01:40AM 39.4358 -92.3817 266° West 311 358 36,000  Level Kansas City Center
01:41AM 39.4297 -92.4939 266° West 311 358 36,000  Level Kansas City Center
01:42AM 39.4250 -92.6089 267° West 313 360 36,000  Level Kansas City Center
01:43AM 39.4189 -92.7214 266° West 314 361 36,000  Level Kansas City Center
01:44AM 39.4122 -92.8339 266° West 314 361 36,000 -298 Level Kansas City Center
01:45AM 39.4072 -92.9486 267° West 314 361 35,400 -1,785 Descending Kansas City Center
01:46AM 39.3997 -93.0644 265° West 320 368 32,400 -2,750 Descending Kansas City Center
01:47AM 39.3939 -93.1742 266° West 315 362 29,900 -2,350 Descending Kansas City Center
01:48AM 39.3875 -93.2792 266° West 300 345 27,700 -2,083 Descending Kansas City Center
01:49AM 39.3817 -93.3731 265° West 273 314 25,700 -1,983 Descending Kansas City Center
01:50AM 39.3764 -93.4669 266° West 266 306 23,700 -2,050 Descending Kansas City Center
01:51AM 39.3717 -93.5661 267° West 272 313 21,600 -2,150 Descending Kansas City Center
01:52AM 39.3650 -93.6600 265° West 268 308 19,400 -2,331 Descending Kansas City Center
01:53AM 39.3533 -93.7628 262° West 260 299 16,900 -2,281 Descending Kansas City Center
01:54AM 39.3339 -93.8542 255° West 271 312 14,800 -2,400 Descending Kansas City Center
01:55AM 39.3172 -93.9469 257° West 276 318 12,100 -2,250 Descending Kansas City Center
01:56AM 39.2972 -94.0550 257° West 278 320 10,300 -1,700 Descending Kansas City Center
01:57AM 39.2811 -94.1408 256° West 263 303 8,700 -1,645 Descending Kansas City Center
01:58AM 39.2644 -94.2247 256° West 256 295 6,900 -1,736 Descending Kansas City Center
01:59AM 39.2489 -94.3125 257° West 261 300 5,200 -1,487 Descending Kansas City Center
02:00AM 39.2342 -94.4106 259° West 253 291 4,000 -744 Descending Kansas City Center
02:01AM 39.2208 -94.4944 258° West 252 290 3,700 -500 Descending Kansas City Center
02:02AM 39.2083 -94.5758 259° West 244 281 3,000 -353 Descending Kansas City Center
02:03AM 39.2000 -94.6533 262° West 230 265 3,000 -98 Level Kansas City Center
02:04AM 39.2203 -94.7214 291° West 177 204 2,800 -590 Descending Kansas City Center
02:05AM 39.2514 -94.7164 North 129 148 1,800 -850 Descending Kansas City Center
02:06AM 39.2814 -94.7083 12° North 116 133 1,100 -700 Descending Kansas City Center

Login

Don't have an account? Register now (free) for customized features, flight alerts, and more!